createdAt,value
2023-08-10T00:01:03.036Z,2.15
2023-08-10T00:02:06.475Z,2.00
2023-08-10T00:03:10.587Z,2.20
2023-08-10T00:04:14.081Z,2.00
2023-08-10T00:05:17.250Z,2.00
2023-08-10T00:06:21.099Z,2.00
2023-08-10T00:07:24.125Z,1.90
2023-08-10T00:08:27.212Z,2.10
2023-08-10T00:09:30.205Z,2.03
2023-08-10T00:10:33.224Z,2.20
2023-08-10T00:11:36.668Z,1.95
2023-08-10T00:12:39.961Z,2.10
2023-08-10T00:13:43.294Z,1.80
2023-08-10T00:14:46.239Z,2.10
2023-08-10T00:15:49.352Z,2.08
2023-08-10T00:16:52.400Z,2.37
2023-08-10T00:17:55.461Z,2.10
2023-08-10T00:18:58.521Z,1.90
2023-08-10T00:20:01.424Z,1.95
2023-08-10T00:21:05.287Z,2.10
2023-08-10T00:22:08.335Z,2.05
2023-08-10T00:23:12.444Z,2.15
2023-08-10T00:24:15.487Z,2.10
2023-08-10T00:25:18.438Z,1.85
2023-08-10T00:26:21.317Z,2.08
2023-08-10T00:27:25.651Z,2.12
2023-08-10T00:28:28.680Z,2.20
2023-08-10T00:29:31.549Z,2.10
2023-08-10T00:30:34.597Z,2.17
2023-08-10T00:31:37.598Z,2.10
2023-08-10T00:32:41.069Z,2.12
2023-08-10T00:33:44.923Z,2.00
2023-08-10T00:34:47.859Z,1.98
2023-08-10T00:35:50.756Z,1.98
2023-08-10T00:36:53.754Z,2.00
2023-08-10T00:37:56.808Z,2.30
2023-08-10T00:38:59.725Z,2.20
2023-08-10T00:40:03.577Z,2.20
2023-08-10T00:41:07.187Z,2.10
2023-08-10T00:42:10.115Z,2.03
2023-08-10T00:43:13.426Z,2.22
2023-08-10T00:44:17.774Z,2.10
2023-08-10T00:45:20.692Z,1.98
2023-08-10T00:46:23.695Z,2.40
2023-08-10T00:47:27.960Z,2.10
2023-08-10T00:48:32.211Z,2.17
2023-08-10T00:49:35.617Z,1.95
2023-08-10T00:50:38.573Z,2.22
2023-08-10T00:51:41.525Z,2.20
2023-08-10T00:52:45.130Z,2.75
2023-08-10T00:53:48.201Z,2.10
2023-08-10T00:54:51.289Z,2.20
2023-08-10T00:55:55.286Z,2.12
2023-08-10T00:56:58.219Z,2.12
2023-08-10T00:58:01.111Z,2.30
2023-08-10T00:59:04.499Z,2.50
2023-08-10T01:00:11.778Z,2.33
2023-08-10T01:01:14.973Z,2.17
2023-08-10T01:02:18.294Z,2.05
2023-08-10T01:03:21.379Z,2.50
2023-08-10T01:04:24.459Z,2.12
2023-08-10T01:05:34.714Z,2.40
2023-08-10T01:06:46.428Z,2.50
2023-08-10T01:08:04.617Z,2.30
2023-08-10T01:09:20.832Z,2.17
2023-08-10T01:10:43.667Z,2.03
2023-08-10T01:12:20.380Z,2.40
2023-08-10T01:13:31.893Z,2.00
2023-08-10T01:14:59.490Z,2.15
2023-08-10T01:16:10.661Z,2.20
2023-08-10T01:17:21.038Z,2.47
2023-08-10T01:18:28.355Z,2.40
2023-08-10T01:19:38.197Z,2.00
2023-08-10T01:20:43.383Z,2.40
2023-08-10T01:22:02.351Z,2.22
2023-08-10T01:23:14.073Z,2.37
2023-08-10T01:24:26.815Z,2.40
2023-08-10T01:25:31.244Z,2.22
2023-08-10T01:26:35.100Z,2.60
2023-08-10T01:27:39.741Z,2.50
2023-08-10T01:28:43.823Z,2.30
2023-08-10T01:29:47.343Z,2.60
2023-08-10T01:30:51.007Z,2.75
2023-08-10T01:31:54.324Z,2.20
2023-08-10T01:32:57.708Z,2.28
2023-08-10T01:34:00.666Z,2.22
2023-08-10T01:35:07.259Z,2.10
2023-08-10T01:36:10.231Z,2.15
2023-08-10T01:37:13.407Z,2.33
2023-08-10T01:38:16.636Z,2.20
2023-08-10T01:39:19.702Z,2.30
2023-08-10T01:40:22.872Z,2.30
2023-08-10T01:41:26.048Z,2.17
2023-08-10T01:42:29.360Z,2.33
2023-08-10T01:43:32.286Z,2.05
2023-08-10T01:44:35.256Z,2.10
2023-08-10T01:45:39.560Z,2.28
2023-08-10T01:46:47.890Z,2.30
2023-08-10T01:47:59.016Z,2.10
2023-08-10T01:49:04.037Z,2.10
2023-08-10T01:50:09.556Z,2.47
2023-08-10T01:51:14.550Z,2.30
2023-08-10T01:52:20.834Z,2.05
2023-08-10T01:53:31.709Z,2.35
2023-08-10T01:55:39.165Z,2.40
2023-08-10T01:56:42.261Z,2.70
2023-08-10T01:57:46.263Z,2.22
2023-08-10T01:58:49.403Z,2.45
2023-08-10T01:59:52.792Z,2.03
2023-08-10T02:00:55.984Z,2.50
2023-08-10T02:01:59.173Z,2.60
2023-08-10T02:03:02.645Z,2.55
2023-08-10T02:04:05.842Z,2.53
2023-08-10T02:05:09.646Z,2.35
2023-08-10T02:06:12.829Z,2.55
2023-08-10T02:07:15.806Z,2.35
2023-08-10T02:08:18.820Z,2.55
2023-08-10T02:09:22.182Z,2.37
2023-08-10T02:10:25.324Z,2.65
2023-08-10T02:11:28.366Z,2.60
2023-08-10T02:12:31.521Z,2.47
2023-08-10T02:13:34.619Z,2.50
2023-08-10T02:14:37.662Z,2.67
2023-08-10T02:15:43.845Z,2.30
2023-08-10T02:16:46.947Z,2.55
2023-08-10T02:17:49.974Z,2.42
2023-08-10T02:18:52.881Z,2.65
2023-08-10T02:19:57.114Z,2.58
2023-08-10T02:21:00.180Z,2.60
2023-08-10T02:22:03.963Z,2.47
2023-08-10T02:23:07.280Z,2.35
2023-08-10T02:24:10.847Z,2.40
2023-08-10T02:25:14.141Z,2.40
2023-08-10T02:26:17.222Z,2.08
2023-08-10T02:27:20.323Z,2.17
2023-08-10T02:28:23.262Z,2.37
2023-08-10T02:29:26.415Z,2.30
2023-08-10T02:30:29.649Z,2.30
2023-08-10T02:31:33.317Z,2.45
2023-08-10T02:32:37.164Z,2.30
2023-08-10T02:33:40.158Z,2.83
2023-08-10T02:34:43.562Z,2.03
2023-08-10T02:35:46.690Z,2.40
2023-08-10T02:36:49.835Z,2.17
2023-08-10T02:37:52.840Z,2.17
2023-08-10T02:38:55.833Z,2.00
2023-08-10T02:39:58.904Z,2.10
2023-08-10T02:41:01.843Z,2.20
2023-08-10T02:42:05.056Z,2.22
2023-08-10T02:43:08.149Z,1.90
2023-08-10T02:44:11.142Z,1.98
2023-08-10T02:45:14.500Z,2.20
2023-08-10T02:46:17.481Z,2.03
2023-08-10T02:47:20.569Z,2.00
2023-08-10T02:48:23.831Z,1.98
2023-08-10T02:49:28.013Z,1.90
2023-08-10T02:50:31.006Z,2.08
2023-08-10T02:51:33.875Z,2.10
2023-08-10T02:52:36.844Z,2.15
2023-08-10T02:53:39.941Z,2.08
2023-08-10T02:54:42.993Z,2.25
2023-08-10T02:55:46.017Z,1.90
2023-08-10T02:56:49.306Z,2.33
2023-08-10T02:57:52.492Z,2.20
2023-08-10T02:58:55.634Z,1.83
2023-08-10T02:59:58.843Z,2.05
2023-08-10T03:01:08.225Z,2.72
2023-08-10T03:02:11.458Z,1.90
2023-08-10T03:03:14.442Z,2.10
2023-08-10T03:04:17.945Z,2.20
2023-08-10T03:05:21.072Z,2.42
2023-08-10T03:06:24.499Z,2.25
2023-08-10T03:07:29.211Z,2.22
2023-08-10T03:08:32.255Z,2.40
2023-08-10T03:09:35.337Z,1.95
2023-08-10T03:10:38.340Z,2.33
2023-08-10T03:11:41.379Z,2.25
2023-08-10T03:12:44.481Z,2.20
2023-08-10T03:13:47.471Z,2.28
2023-08-10T03:14:50.495Z,2.10
2023-08-10T03:15:56.730Z,2.00
2023-08-10T03:16:59.916Z,1.98
2023-08-10T03:18:03.372Z,1.80
2023-08-10T03:19:06.593Z,2.00
2023-08-10T03:20:18.608Z,1.83
2023-08-10T03:21:22.103Z,1.87
2023-08-10T03:22:27.636Z,2.20
2023-08-10T03:23:30.809Z,2.10
2023-08-10T03:24:33.661Z,2.17
2023-08-10T03:25:36.831Z,2.10
2023-08-10T03:26:39.853Z,2.42
2023-08-10T03:27:42.747Z,2.03
2023-08-10T03:28:45.825Z,2.25
2023-08-10T03:29:48.827Z,2.20
2023-08-10T03:30:51.954Z,2.10
2023-08-10T03:31:55.687Z,2.10
2023-08-10T03:32:58.835Z,2.12
2023-08-10T03:34:01.893Z,2.00
2023-08-10T03:35:05.196Z,1.85
2023-08-10T03:36:08.563Z,1.90
2023-08-10T03:37:11.396Z,1.87
2023-08-10T03:38:14.372Z,2.40
2023-08-10T03:39:17.432Z,2.00
2023-08-10T03:40:20.458Z,2.05
2023-08-10T03:41:23.439Z,1.90
2023-08-10T03:42:26.282Z,2.10
2023-08-10T03:43:29.273Z,2.17
2023-08-10T03:44:32.645Z,2.15
2023-08-10T03:45:35.683Z,2.10
2023-08-10T03:46:38.950Z,2.00
2023-08-10T03:47:41.973Z,2.10
2023-08-10T03:48:44.931Z,2.10
2023-08-10T03:49:47.870Z,1.92
2023-08-10T03:50:51.066Z,2.03
2023-08-10T03:51:54.040Z,1.90
2023-08-10T03:52:57.042Z,2.08
2023-08-10T03:53:59.922Z,2.08
2023-08-10T03:55:04.061Z,2.05
2023-08-10T03:56:08.125Z,2.17
2023-08-10T03:57:11.392Z,1.90
2023-08-10T03:58:14.476Z,2.20
2023-08-10T03:59:17.845Z,1.90
2023-08-10T04:00:22.555Z,1.80
2023-08-10T04:01:25.584Z,2.35
2023-08-10T04:02:29.418Z,1.90
2023-08-10T04:03:32.508Z,1.95
2023-08-10T04:04:35.505Z,2.30
2023-08-10T04:05:38.853Z,2.05
2023-08-10T04:06:42.096Z,1.75
2023-08-10T04:07:45.719Z,2.12
2023-08-10T04:08:49.472Z,2.15
2023-08-10T04:09:52.629Z,1.90
2023-08-10T04:10:55.856Z,1.70
2023-08-10T04:11:59.146Z,1.70
2023-08-10T04:13:02.304Z,2.28
2023-08-10T04:14:05.448Z,2.00
2023-08-10T04:15:08.664Z,1.98
2023-08-10T04:16:12.524Z,1.98
2023-08-10T04:17:16.944Z,2.00
2023-08-10T04:18:19.880Z,2.42
2023-08-10T04:19:23.258Z,2.10
2023-08-10T04:20:26.509Z,1.95
2023-08-10T04:21:29.654Z,1.87
2023-08-10T04:22:32.683Z,2.10
2023-08-10T04:23:36.707Z,2.37
2023-08-10T04:24:39.641Z,2.30
2023-08-10T04:25:42.584Z,2.35
2023-08-10T04:26:46.958Z,2.45
2023-08-10T04:27:50.007Z,2.50
2023-08-10T04:28:53.048Z,2.00
2023-08-10T04:29:56.318Z,2.40
2023-08-10T04:30:59.595Z,2.40
2023-08-10T04:32:03.621Z,2.25
2023-08-10T04:33:06.657Z,2.28
2023-08-10T04:34:09.695Z,2.40
2023-08-10T04:35:12.994Z,2.47
2023-08-10T04:36:16.132Z,2.55
2023-08-10T04:37:19.015Z,2.72
2023-08-10T04:38:22.034Z,2.35
2023-08-10T04:39:25.088Z,2.40
2023-08-10T04:40:28.181Z,2.50
2023-08-10T04:41:31.103Z,2.28
2023-08-10T04:42:34.221Z,2.37
2023-08-10T04:43:37.376Z,2.50
2023-08-10T04:44:40.421Z,2.40
2023-08-10T04:45:44.183Z,2.87
2023-08-10T04:46:47.130Z,2.35
2023-08-10T04:47:50.645Z,2.50
2023-08-10T04:48:53.500Z,2.47
2023-08-10T04:49:56.349Z,2.50
2023-08-10T04:50:59.382Z,2.40
2023-08-10T04:52:03.359Z,2.40
2023-08-10T04:53:07.008Z,2.35
2023-08-10T04:54:12.803Z,2.45
2023-08-10T04:55:16.126Z,2.30
2023-08-10T04:56:19.281Z,2.67
2023-08-10T04:57:22.220Z,2.20
2023-08-10T04:58:25.163Z,2.80
2023-08-10T04:59:28.135Z,2.42
2023-08-10T05:00:31.181Z,2.47
2023-08-10T05:01:34.257Z,2.20
2023-08-10T05:02:38.343Z,2.15
2023-08-10T05:03:42.194Z,2.20
2023-08-10T05:04:46.198Z,2.25
2023-08-10T05:05:49.352Z,2.05
2023-08-10T05:06:53.011Z,2.12
2023-08-10T05:07:56.078Z,2.10
2023-08-10T05:08:59.023Z,2.25
2023-08-10T05:10:06.364Z,2.30
2023-08-10T05:11:09.732Z,2.30
2023-08-10T05:12:12.696Z,2.20
2023-08-10T05:13:15.760Z,2.15
2023-08-10T05:14:18.788Z,2.10
2023-08-10T05:15:21.892Z,2.22
2023-08-10T05:16:24.848Z,2.45
2023-08-10T05:17:28.149Z,2.50
2023-08-10T05:18:31.097Z,2.08
2023-08-10T05:19:34.130Z,2.40
2023-08-10T05:20:38.994Z,2.35
2023-08-10T05:21:42.078Z,2.20
2023-08-10T05:22:45.139Z,2.20
2023-08-10T05:23:48.057Z,2.47
2023-08-10T05:24:51.290Z,1.83
2023-08-10T05:25:54.734Z,2.10
2023-08-10T05:26:57.734Z,2.25
2023-08-10T05:28:00.780Z,2.30
2023-08-10T05:29:04.066Z,2.20
2023-08-10T05:30:10.403Z,2.12
2023-08-10T05:31:13.656Z,2.20
2023-08-10T05:32:19.187Z,2.40
2023-08-10T05:33:22.936Z,2.10
2023-08-10T05:34:26.003Z,2.20
2023-08-10T05:35:29.159Z,1.90
2023-08-10T05:36:32.112Z,2.35
2023-08-10T05:37:36.314Z,2.40
2023-08-10T05:38:42.421Z,2.10
2023-08-10T05:39:45.286Z,2.20
2023-08-10T05:40:48.628Z,2.25
2023-08-10T05:41:51.477Z,2.15
2023-08-10T05:42:54.514Z,2.10
2023-08-10T05:43:57.515Z,2.30
2023-08-10T05:45:01.083Z,2.40
2023-08-10T05:46:04.201Z,2.10
2023-08-10T05:47:07.926Z,2.15
2023-08-10T05:48:12.772Z,2.08
2023-08-10T05:49:15.599Z,2.15
2023-08-10T05:50:19.280Z,2.12
2023-08-10T05:51:22.357Z,2.28
2023-08-10T05:52:25.374Z,2.42
2023-08-10T05:53:28.516Z,2.15
2023-08-10T05:54:31.596Z,2.05
2023-08-10T05:55:35.507Z,2.10
2023-08-10T05:56:38.442Z,2.22
2023-08-10T05:57:41.947Z,2.10
2023-08-10T05:58:44.814Z,2.08
2023-08-10T05:59:47.834Z,2.40
2023-08-10T06:00:50.813Z,2.08
2023-08-10T06:01:54.798Z,2.28
2023-08-10T06:02:58.058Z,2.20
2023-08-10T06:04:01.411Z,1.95
2023-08-10T06:05:07.769Z,2.00
2023-08-10T06:06:11.297Z,2.00
2023-08-10T06:07:14.193Z,2.20
2023-08-10T06:08:17.135Z,1.95
2023-08-10T06:09:20.913Z,1.92
2023-08-10T06:10:24.114Z,2.17
2023-08-10T06:11:41.997Z,2.00
2023-08-10T06:12:49.611Z,2.10
2023-08-10T06:13:52.510Z,1.80
2023-08-10T06:14:55.582Z,2.05
2023-08-10T06:15:58.824Z,2.20
2023-08-10T06:17:02.107Z,2.10
2023-08-10T06:18:05.566Z,1.85
2023-08-10T06:19:08.608Z,1.80
2023-08-10T06:20:14.850Z,2.00
2023-08-10T06:21:17.810Z,1.90
2023-08-10T06:22:21.058Z,1.90
2023-08-10T06:23:24.165Z,1.92
2023-08-10T06:24:27.009Z,2.03
2023-08-10T06:25:32.409Z,1.90
2023-08-10T06:26:35.495Z,2.00
2023-08-10T06:27:38.540Z,2.10
2023-08-10T06:28:41.508Z,1.85
2023-08-10T06:29:44.451Z,2.00
2023-08-10T06:30:47.589Z,2.08
2023-08-10T06:31:50.749Z,2.17
2023-08-10T06:32:53.800Z,2.10
2023-08-10T06:33:56.700Z,2.03
2023-08-10T06:34:59.646Z,2.08
2023-08-10T06:36:02.779Z,2.17
2023-08-10T06:37:05.864Z,1.87
2023-08-10T06:38:09.290Z,1.98
2023-08-10T06:39:12.306Z,2.00
2023-08-10T06:40:16.971Z,2.25
2023-08-10T06:41:19.985Z,1.80
2023-08-10T06:42:23.822Z,1.90
2023-08-10T06:43:26.778Z,2.03
2023-08-10T06:44:30.743Z,1.75
2023-08-10T06:45:34.279Z,2.00
2023-08-10T06:46:37.294Z,2.00
2023-08-10T06:47:40.457Z,1.80
2023-08-10T06:48:43.499Z,2.10
2023-08-10T06:49:46.434Z,1.90
2023-08-10T06:50:49.869Z,1.90
2023-08-10T06:51:52.893Z,1.77
2023-08-10T06:52:55.950Z,1.87
2023-08-10T06:53:58.887Z,1.80
2023-08-10T06:55:01.798Z,1.87
2023-08-10T06:57:13.028Z,1.85
2023-08-10T06:58:44.096Z,1.70
2023-08-10T07:00:46.026Z,1.83
2023-08-10T07:01:49.225Z,1.80
2023-08-10T07:02:56.235Z,1.95
2023-08-10T07:03:59.793Z,2.00
2023-08-10T07:05:02.875Z,2.08
2023-08-10T07:06:06.134Z,1.90
2023-08-10T07:07:09.079Z,2.05
2023-08-10T07:08:12.154Z,1.73
2023-08-10T07:09:15.017Z,1.75
2023-08-10T07:10:17.960Z,2.03
2023-08-10T07:11:23.488Z,1.90
2023-08-10T07:12:26.378Z,2.08
2023-08-10T07:13:29.450Z,2.12
2023-08-10T07:14:32.474Z,2.22
2023-08-10T07:15:35.419Z,1.73
2023-08-10T07:16:38.405Z,1.90
2023-08-10T07:17:41.383Z,1.90
2023-08-10T07:18:44.588Z,2.05
2023-08-10T07:19:47.452Z,1.77
2023-08-10T07:20:50.306Z,1.67
2023-08-10T07:21:56.601Z,1.95
2023-08-10T07:22:59.549Z,1.65
2023-08-10T07:24:02.509Z,1.62
2023-08-10T07:25:07.390Z,1.90
2023-08-10T07:26:11.547Z,1.77
2023-08-10T07:27:14.735Z,1.80
2023-08-10T07:28:17.981Z,1.50
2023-08-10T07:29:21.280Z,1.85
2023-08-10T07:30:24.302Z,1.80
2023-08-10T07:31:33.269Z,1.80
2023-08-10T07:32:36.329Z,1.80
2023-08-10T07:33:39.374Z,1.48
2023-08-10T07:34:42.366Z,1.40
2023-08-10T07:35:46.354Z,1.50
2023-08-10T07:36:50.147Z,1.40
2023-08-10T07:37:53.053Z,1.60
2023-08-10T07:38:57.322Z,1.60
2023-08-10T07:40:00.246Z,1.60
2023-08-10T07:41:03.257Z,1.48
2023-08-10T07:42:06.498Z,1.42
2023-08-10T07:43:09.848Z,1.42
2023-08-10T07:44:12.859Z,1.40
2023-08-10T07:45:15.920Z,1.40
2023-08-10T07:46:18.832Z,1.60
2023-08-10T07:47:21.754Z,1.50
2023-08-10T07:48:24.558Z,1.50
2023-08-10T07:49:29.122Z,1.50
2023-08-10T07:50:32.823Z,1.42
2023-08-10T07:51:35.914Z,1.50
2023-08-10T07:52:38.820Z,1.65
2023-08-10T07:53:41.884Z,1.58
2023-08-10T07:54:45.383Z,1.40
2023-08-10T07:55:48.373Z,1.33
2023-08-10T07:56:51.629Z,1.52
2023-08-10T07:57:54.873Z,1.40
2023-08-10T07:58:57.911Z,1.30
2023-08-10T08:00:06.398Z,1.67
2023-08-10T08:01:09.865Z,1.40
2023-08-10T08:02:12.900Z,1.40
2023-08-10T08:03:15.936Z,1.42
2023-08-10T08:05:22.864Z,1.52
2023-08-10T08:06:25.856Z,1.50
2023-08-10T08:07:31.897Z,1.50
2023-08-10T08:08:34.768Z,1.40
2023-08-10T08:09:37.738Z,1.50
2023-08-10T08:10:41.274Z,1.40
2023-08-10T08:11:44.161Z,1.40
2023-08-10T08:12:47.056Z,1.50
2023-08-10T08:13:50.041Z,1.45
2023-08-10T08:14:53.623Z,1.50
2023-08-10T08:15:58.725Z,1.50
2023-08-10T08:17:01.583Z,1.40
2023-08-10T08:18:41.807Z,1.55
2023-08-10T08:19:44.737Z,1.33
2023-08-10T08:20:47.815Z,1.42
2023-08-10T08:21:50.784Z,1.60
2023-08-10T08:22:53.607Z,1.40
2023-08-10T08:23:57.337Z,1.42
2023-08-10T08:25:00.396Z,1.40
2023-08-10T08:26:03.376Z,1.40
2023-08-10T08:27:06.396Z,1.30
2023-08-10T08:28:09.302Z,1.50
2023-08-10T08:29:12.965Z,1.42
2023-08-10T08:30:16.059Z,1.48
2023-08-10T08:31:19.095Z,1.35
2023-08-10T08:32:37.004Z,1.40
2023-08-10T08:33:44.955Z,1.60
2023-08-10T08:34:47.925Z,1.48
2023-08-10T08:35:52.017Z,1.60
2023-08-10T08:36:55.137Z,1.62
2023-08-10T08:37:57.953Z,1.50
2023-08-10T08:39:01.329Z,1.25
2023-08-10T08:40:04.675Z,1.55
2023-08-10T08:41:10.216Z,1.30
2023-08-10T08:42:13.706Z,1.50
2023-08-10T08:43:18.426Z,1.45
2023-08-10T08:44:21.537Z,1.50
2023-08-10T08:45:24.753Z,1.52
2023-08-10T08:46:32.451Z,1.42
2023-08-10T08:47:35.584Z,1.73
2023-08-10T08:48:39.099Z,1.50
2023-08-10T08:49:41.979Z,1.40
2023-08-10T08:50:49.588Z,1.55
2023-08-10T08:51:52.646Z,1.60
2023-08-10T08:52:55.813Z,1.40
2023-08-10T08:54:03.598Z,1.40
2023-08-10T08:55:08.795Z,1.52
2023-08-10T08:56:11.779Z,1.45
2023-08-10T08:57:14.818Z,1.60
2023-08-10T08:58:18.776Z,1.55
2023-08-10T08:59:22.313Z,1.40
2023-08-10T09:00:25.698Z,1.60
2023-08-10T09:01:28.712Z,1.50
2023-08-10T09:02:32.428Z,1.40
2023-08-10T09:03:36.338Z,1.70
2023-08-10T09:04:39.253Z,1.20
2023-08-10T09:05:42.127Z,1.50
2023-08-10T09:06:47.086Z,1.40
2023-08-10T09:07:51.337Z,1.30
2023-08-10T09:08:54.241Z,1.50
2023-08-10T09:09:57.858Z,1.30
2023-08-10T09:11:01.037Z,1.50
2023-08-10T09:12:29.531Z,1.55
2023-08-10T09:13:33.469Z,1.40
2023-08-10T09:14:36.443Z,1.50
2023-08-10T09:15:39.784Z,1.60
2023-08-10T09:16:46.419Z,1.55
2023-08-10T09:17:54.196Z,1.50
2023-08-10T09:18:57.243Z,1.58
2023-08-10T09:20:00.758Z,1.40
2023-08-10T09:21:09.046Z,1.70
2023-08-10T09:22:27.494Z,1.42
2023-08-10T09:23:30.404Z,1.40
2023-08-10T09:24:33.614Z,1.45
2023-08-10T09:25:44.072Z,1.50
2023-08-10T09:26:47.614Z,1.40
2023-08-10T09:27:51.471Z,1.42
2023-08-10T09:28:54.791Z,1.40
2023-08-10T09:30:05.189Z,1.58
2023-08-10T09:32:21.272Z,1.65
2023-08-10T09:33:34.196Z,1.60
2023-08-10T09:34:37.324Z,1.67
2023-08-10T09:35:40.289Z,1.50
2023-08-10T09:36:54.037Z,1.65
2023-08-10T09:38:02.798Z,1.52
2023-08-10T09:39:05.803Z,1.60
2023-08-10T09:40:12.600Z,1.50
2023-08-10T09:41:16.694Z,1.55
2023-08-10T09:42:19.632Z,1.70
2023-08-10T09:43:25.476Z,1.58
2023-08-10T09:44:49.076Z,1.60
2023-08-10T09:46:05.669Z,1.62
2023-08-10T09:47:08.721Z,1.45
2023-08-10T09:48:13.110Z,1.50
2023-08-10T09:49:19.111Z,1.62
2023-08-10T09:50:22.242Z,1.55
2023-08-10T09:51:25.151Z,1.50
2023-08-10T09:52:28.662Z,1.50
2023-08-10T09:53:33.467Z,1.50
2023-08-10T09:54:38.474Z,1.50
2023-08-10T09:55:42.421Z,1.50
2023-08-10T09:56:45.493Z,1.73
2023-08-10T09:57:49.582Z,1.40
2023-08-10T09:58:52.780Z,1.40
2023-08-10T09:59:56.196Z,1.48
2023-08-10T10:00:59.580Z,1.67
2023-08-10T10:02:03.838Z,1.67
2023-08-10T10:03:07.125Z,1.60
2023-08-10T10:04:10.311Z,1.50
2023-08-10T10:05:22.402Z,1.70
2023-08-10T10:06:34.121Z,1.70
2023-08-10T10:07:37.486Z,1.60
2023-08-10T10:08:44.836Z,1.52
2023-08-10T10:09:50.951Z,1.40
2023-08-10T10:10:59.400Z,1.55
2023-08-10T10:12:04.781Z,1.50
2023-08-10T10:13:14.494Z,1.50
2023-08-10T10:14:17.734Z,1.60
2023-08-10T10:15:22.767Z,1.50
2023-08-10T10:16:27.246Z,1.42
2023-08-10T10:17:30.592Z,1.58
2023-08-10T10:18:36.676Z,1.60
2023-08-10T10:19:44.365Z,1.50
2023-08-10T10:20:47.795Z,1.55
2023-08-10T10:21:51.032Z,1.48
2023-08-10T10:22:54.031Z,1.45
2023-08-10T10:24:02.512Z,1.62
2023-08-10T10:25:05.715Z,1.70
2023-08-10T10:26:08.930Z,1.67
2023-08-10T10:27:14.212Z,1.52
2023-08-10T10:28:17.706Z,1.60
2023-08-10T10:29:20.738Z,1.60
2023-08-10T10:30:25.473Z,1.80
2023-08-10T10:31:28.696Z,1.70
2023-08-10T10:32:31.926Z,1.70
2023-08-10T10:33:36.078Z,1.65
2023-08-10T10:34:40.469Z,1.40
2023-08-10T10:36:23.075Z,1.73
2023-08-10T10:37:34.386Z,1.42
2023-08-10T10:38:42.864Z,1.30
2023-08-10T10:39:49.702Z,1.50
2023-08-10T10:40:52.925Z,1.52
2023-08-10T10:41:55.878Z,1.70
2023-08-10T10:43:04.798Z,1.65
2023-08-10T10:44:10.128Z,1.25
2023-08-10T10:45:16.157Z,1.95
2023-08-10T10:46:34.826Z,1.60
2023-08-10T10:47:40.120Z,1.60
2023-08-10T10:48:50.459Z,1.75
2023-08-10T10:50:58.854Z,1.67
2023-08-10T10:52:06.267Z,1.55
2023-08-10T10:53:13.336Z,1.55
2023-08-10T10:54:16.475Z,1.87
2023-08-10T10:55:19.587Z,1.70
2023-08-10T10:56:23.276Z,1.62
2023-08-10T10:57:27.870Z,1.50
2023-08-10T10:58:32.670Z,1.52
2023-08-10T10:59:35.697Z,1.77
2023-08-10T11:00:39.683Z,1.73
2023-08-10T11:01:46.809Z,1.62
2023-08-10T11:02:50.646Z,1.50
2023-08-10T11:03:56.044Z,1.60
2023-08-10T11:04:58.999Z,1.60
2023-08-10T11:06:03.712Z,1.40
2023-08-10T11:07:08.659Z,1.67
2023-08-10T11:08:12.294Z,1.62
2023-08-10T11:09:15.195Z,1.50
2023-08-10T11:10:21.686Z,1.85
2023-08-10T11:11:24.786Z,1.45
2023-08-10T11:12:29.242Z,1.58
2023-08-10T11:13:32.690Z,1.40
2023-08-10T11:14:35.733Z,1.70
2023-08-10T11:15:38.694Z,1.62
2023-08-10T11:16:46.092Z,1.75
2023-08-10T11:17:52.780Z,1.60
2023-08-10T11:18:59.816Z,1.70
2023-08-10T11:20:08.526Z,1.65
2023-08-10T11:21:13.281Z,1.58
2023-08-10T11:22:18.940Z,1.83
2023-08-10T11:23:22.087Z,1.60
2023-08-10T11:24:25.241Z,1.60
2023-08-10T11:25:34.075Z,1.70
2023-08-10T11:26:37.982Z,1.50
2023-08-10T11:27:46.170Z,1.60
2023-08-10T11:28:49.444Z,1.80
2023-08-10T11:29:55.562Z,1.70
2023-08-10T11:31:09.147Z,1.58
2023-08-10T11:32:13.210Z,1.50
2023-08-10T11:34:26.184Z,1.67
2023-08-10T11:35:29.466Z,1.70
2023-08-10T11:36:32.420Z,1.67
2023-08-10T11:37:37.349Z,1.60
2023-08-10T11:38:48.530Z,1.52
2023-08-10T11:39:51.746Z,1.40
2023-08-10T11:40:59.192Z,1.60
2023-08-10T11:42:02.181Z,1.50
2023-08-10T11:43:15.776Z,1.40
2023-08-10T11:44:27.522Z,1.45
2023-08-10T11:45:31.032Z,1.40
2023-08-10T11:46:34.088Z,1.50
2023-08-10T11:48:02.587Z,1.50
2023-08-10T11:49:08.360Z,1.58
2023-08-10T11:50:14.892Z,1.42
2023-08-10T11:51:19.496Z,1.48
2023-08-10T11:52:22.446Z,1.70
2023-08-10T11:53:26.691Z,1.35
2023-08-10T11:54:36.549Z,1.60
2023-08-10T11:55:47.873Z,1.42
2023-08-10T11:56:50.847Z,1.30
2023-08-10T11:57:56.526Z,1.52
2023-08-10T11:59:00.215Z,1.30
2023-08-10T12:00:40.082Z,1.50
2023-08-10T12:01:55.813Z,1.20
2023-08-10T12:03:03.929Z,1.40
2023-08-10T12:04:12.981Z,1.40
2023-08-10T12:05:16.225Z,1.55
2023-08-10T12:06:20.046Z,1.40
2023-08-10T12:07:25.174Z,1.30
2023-08-10T12:08:32.326Z,1.33
2023-08-10T12:09:38.662Z,1.33
2023-08-10T12:10:49.328Z,1.40
2023-08-10T12:13:03.053Z,1.40
2023-08-10T12:14:11.486Z,1.50
2023-08-10T12:15:18.204Z,1.50
2023-08-10T12:16:23.064Z,1.40
2023-08-10T12:17:26.197Z,1.30
2023-08-10T12:18:29.180Z,1.42
2023-08-10T12:19:32.155Z,1.27
2023-08-10T12:20:35.536Z,1.67
2023-08-10T12:21:38.641Z,1.50
2023-08-10T12:22:41.733Z,1.40
2023-08-10T12:23:45.460Z,1.60
2023-08-10T12:24:48.391Z,1.40
2023-08-10T12:25:51.648Z,1.42
2023-08-10T12:26:54.690Z,1.37
2023-08-10T12:27:57.634Z,1.30
2023-08-10T12:29:03.327Z,1.60
2023-08-10T12:30:10.373Z,1.30
2023-08-10T12:31:13.483Z,1.50
2023-08-10T12:32:16.602Z,1.40
2023-08-10T12:33:20.669Z,1.50
2023-08-10T12:34:23.614Z,1.58
2023-08-10T12:35:27.606Z,1.30
2023-08-10T12:36:30.573Z,1.40
2023-08-10T12:37:33.636Z,1.48
2023-08-10T12:38:36.594Z,1.40
2023-08-10T12:39:39.490Z,1.60
2023-08-10T12:40:42.587Z,1.60
2023-08-10T12:41:45.626Z,1.42
2023-08-10T12:42:49.364Z,1.55
2023-08-10T12:43:52.414Z,1.50
2023-08-10T12:44:55.371Z,1.40
2023-08-10T12:45:58.444Z,1.30
2023-08-10T12:47:03.034Z,1.35
2023-08-10T12:48:06.534Z,1.60
2023-08-10T12:49:09.868Z,1.58
2023-08-10T12:50:16.208Z,1.42
2023-08-10T12:51:20.738Z,1.33
2023-08-10T12:52:24.106Z,1.50
2023-08-10T12:53:27.482Z,1.45
2023-08-10T12:54:30.577Z,1.45
2023-08-10T12:55:33.833Z,1.40
2023-08-10T12:56:36.778Z,1.40
2023-08-10T12:57:40.600Z,1.50
2023-08-10T12:58:43.569Z,1.40
2023-08-10T12:59:46.849Z,1.30
2023-08-10T13:00:50.097Z,1.62
2023-08-10T13:01:53.663Z,1.42
2023-08-10T13:02:57.522Z,1.42
2023-08-10T13:04:00.585Z,1.50
2023-08-10T13:05:05.924Z,1.50
2023-08-10T13:06:09.533Z,1.50
2023-08-10T13:07:12.630Z,1.30
2023-08-10T13:08:15.800Z,1.55
2023-08-10T13:09:18.998Z,1.50
2023-08-10T13:10:24.407Z,1.45
2023-08-10T13:11:27.467Z,1.40
2023-08-10T13:12:31.179Z,1.30
2023-08-10T13:13:34.533Z,1.50
2023-08-10T13:14:38.511Z,1.50
2023-08-10T13:15:41.639Z,1.60
2023-08-10T13:16:45.394Z,1.40
2023-08-10T13:17:48.635Z,1.50
2023-08-10T13:18:53.365Z,1.33
2023-08-10T13:20:00.488Z,1.50
2023-08-10T13:21:03.762Z,1.55
2023-08-10T13:22:08.055Z,1.55
2023-08-10T13:23:11.265Z,1.50
2023-08-10T13:24:14.333Z,1.50
2023-08-10T13:25:17.425Z,1.50
2023-08-10T13:26:20.404Z,1.45
2023-08-10T13:27:24.095Z,1.30
2023-08-10T13:28:27.309Z,1.45
2023-08-10T13:29:31.282Z,1.60
2023-08-10T13:30:36.069Z,1.42
2023-08-10T13:31:41.145Z,1.50
2023-08-10T13:32:44.148Z,1.70
2023-08-10T13:33:47.147Z,1.60
2023-08-10T13:34:52.044Z,1.55
2023-08-10T13:35:55.034Z,1.37
2023-08-10T13:36:58.632Z,1.40
2023-08-10T13:38:01.589Z,1.37
2023-08-10T13:39:05.118Z,1.75
2023-08-10T13:40:12.410Z,1.65
2023-08-10T13:41:15.514Z,1.50
2023-08-10T13:42:18.513Z,1.40
2023-08-10T13:43:21.534Z,1.50
2023-08-10T13:44:24.425Z,1.30
2023-08-10T13:45:27.386Z,1.60
2023-08-10T13:46:31.321Z,1.73
2023-08-10T13:47:34.417Z,1.58
2023-08-10T13:48:37.523Z,1.40
2023-08-10T13:49:53.452Z,1.70
2023-08-10T13:50:58.088Z,1.60
2023-08-10T13:52:01.105Z,1.50
2023-08-10T13:53:05.256Z,1.40
2023-08-10T13:54:08.519Z,1.50
2023-08-10T13:55:11.532Z,1.42
2023-08-10T13:56:14.921Z,1.60
2023-08-10T13:57:19.935Z,1.50
2023-08-10T13:58:23.568Z,1.40
2023-08-10T13:59:27.585Z,1.52
2023-08-10T14:00:30.478Z,1.40
2023-08-10T14:01:33.808Z,1.40
2023-08-10T14:02:37.288Z,1.52
2023-08-10T14:03:40.653Z,1.62
2023-08-10T14:04:43.996Z,1.58
2023-08-10T14:05:47.739Z,1.50
2023-08-10T14:06:50.973Z,1.58
2023-08-10T14:07:53.892Z,1.55
2023-08-10T14:08:57.011Z,1.48
2023-08-10T14:10:00.092Z,1.50
2023-08-10T14:11:03.403Z,1.67
2023-08-10T14:12:07.243Z,1.50
2023-08-10T14:13:10.575Z,1.50
2023-08-10T14:14:15.604Z,1.40
2023-08-10T14:15:19.384Z,1.70
2023-08-10T14:16:22.423Z,1.50
2023-08-10T14:17:25.709Z,1.50
2023-08-10T14:18:28.816Z,1.50
2023-08-10T14:19:31.684Z,1.50
2023-08-10T14:20:34.710Z,1.33
2023-08-10T14:21:37.984Z,1.35
2023-08-10T14:22:41.002Z,1.42
2023-08-10T14:23:43.904Z,1.65
2023-08-10T14:24:46.947Z,1.20
2023-08-10T14:25:49.961Z,1.30
2023-08-10T14:26:52.930Z,1.50
2023-08-10T14:27:56.012Z,1.42